Time;durP1;ratioP1;P1;durP2;ratioP2;P2;SDS_P1;SDS_P2;PMS_P1;PMS_P2;Temp;Humidity;BMP_temperature;BMP_pressure;BME280_temperature;BME280_humidity;BME280_pressure;Samples;Min_cycle;Max_cycle;Signal;HPM_P1;HPM_P2
2023/05/22 00:01:38;;;;;;;;;;;;;;;13.63;100.00;95511.13;5083672;28;20386;-73
2023/05/22 00:04:04;;;;;;;;;;;;;;;13.66;100.00;95517.88;5077505;28;19931;-74
2023/05/22 00:06:32;;;;;;;;;;;;;;;13.71;100.00;95505.31;5086308;28;19981;-74
2023/05/22 00:08:59;;;;;;;;;;;;;;;13.73;100.00;95503.44;5082780;28;19968;-74
2023/05/22 00:11:25;;;;;;;;;;;;;;;13.68;100.00;95503.81;5089299;28;20542;-72
2023/05/22 00:13:52;;;;;;;;;;;;;;;13.44;100.00;95506.53;5081437;28;20014;-74
2023/05/22 00:16:18;;;;;;;;;;;;;;;13.29;100.00;95507.75;5086096;28;19924;-74
2023/05/22 00:18:44;;;;;;;;;;;;;;;13.21;100.00;95503.09;5084276;28;19936;-74
2023/05/22 00:21:11;;;;;;;;;;;;;;;13.35;100.00;95496.88;5082649;28;19933;-73
2023/05/22 00:23:38;;;;;;;;;;;;;;;13.35;100.00;95496.88;5087500;28;19928;-74
2023/05/22 00:26:05;;;;;;;;;;;;;;;13.45;100.00;95496.97;5087347;28;19928;-73
2023/05/22 00:28:31;;;;;;;;;;;;;;;13.53;100.00;95500.63;5086939;28;19977;-73
2023/05/22 00:30:57;;;;;;;;;;;;;;;13.60;100.00;95505.34;5083359;28;19932;-74
2023/05/22 00:33:23;;;;;;;;;;;;;;;13.54;100.00;95501.47;5080885;28;19928;-74
2023/05/22 00:35:50;;;;;;;;;;;;;;;13.51;100.00;95499.09;5072568;28;20341;-73
2023/05/22 00:38:27;;;;;;;;;;;;;;;13.35;100.00;95498.63;5086051;28;19928;-73
2023/05/22 00:40:55;;;;;;;;;;;;;;;13.20;100.00;95498.00;5075638;28;19928;-73
2023/05/22 00:43:21;;;;;;;;;;;;;;;13.10;100.00;95497.09;5079354;28;19955;-73
2023/05/22 00:45:47;;;;;;;;;;;;;;;13.08;100.00;95494.59;5076385;28;19970;-73
2023/05/22 00:48:14;;;;;;;;;;;;;;;13.05;100.00;95495.66;5084172;28;19954;-73
2023/05/22 00:50:40;;;;;;;;;;;;;;;13.06;100.00;95491.28;5086706;28;20049;-73
2023/05/22 00:53:07;;;;;;;;;;;;;;;12.91;100.00;95489.88;5079974;28;20382;-73
2023/05/22 00:55:33;;;;;;;;;;;;;;;12.83;100.00;95491.28;5080133;28;20291;-74
2023/05/22 00:58:06;;;;;;;;;;;;;;;12.90;100.00;95498.59;5084512;28;20320;-74
2023/05/22 01:00:33;;;;;;;;;;;;;;;12.94;100.00;95493.06;5084712;28;19979;-76
2023/05/22 01:03:00;;;;;;;;;;;;;;;13.00;100.00;95486.56;5089038;28;19924;-74
2023/05/22 01:05:26;;;;;;;;;;;;;;;13.05;100.00;95489.63;5076863;28;19924;-74
2023/05/22 01:07:52;;;;;;;;;;;;;;;13.14;100.00;95491.53;5080083;28;20015;-74
2023/05/22 01:10:19;;;;;;;;;;;;;;;13.13;100.00;95495.06;5081097;28;19928;-73
2023/05/22 01:12:51;;;;;;;;;;;;;;;13.09;100.00;95496.25;5083590;28;19981;-73
2023/05/22 01:15:22;;;;;;;;;;;;;;;13.07;100.00;95495.53;5083886;28;19924;-73
2023/05/22 01:17:55;;;;;;;;;;;;;;;13.14;100.00;95494.13;5086408;28;20473;-73
2023/05/22 01:20:24;;;;;;;;;;;;;;;13.08;100.00;95495.41;5080512;28;19925;-74
2023/05/22 01:23:10;;;;;;;;;;;;;;;13.02;100.00;95495.91;5081985;28;19928;-73
2023/05/22 01:25:48;;;;;;;;;;;;;;;13.02;100.00;95495.91;5087500;28;20347;-73
2023/05/22 01:28:25;;;;;;;;;;;;;;;13.07;100.00;95498.97;5085555;28;19924;-73
2023/05/22 01:30:58;;;;;;;;;;;;;;;13.09;100.00;95498.88;5071957;28;20646;-73
2023/05/22 01:33:25;;;;;;;;;;;;;;;13.15;100.00;95497.53;5085149;28;19930;-73
2023/05/22 01:35:54;;;;;;;;;;;;;;;13.14;100.00;95499.31;5068681;28;20023;-73
2023/05/22 01:38:21;;;;;;;;;;;;;;;13.17;100.00;95501.69;5080960;28;19928;-73
2023/05/22 01:40:48;;;;;;;;;;;;;;;13.19;100.00;95509.38;5085056;28;20290;-73
2023/05/22 01:43:15;;;;;;;;;;;;;;;13.15;100.00;95506.16;5084059;28;20014;-73
2023/05/22 01:45:41;;;;;;;;;;;;;;;13.13;100.00;95504.66;5083529;28;19928;-73
2023/05/22 01:48:08;;;;;;;;;;;;;;;13.08;100.00;95498.00;5082069;28;20341;-73
2023/05/22 01:50:35;;;;;;;;;;;;;;;13.15;100.00;95505.34;5079610;28;19924;-73
2023/05/22 01:53:07;;;;;;;;;;;;;;;13.09;100.00;95511.88;5084991;28;19924;-74
2023/05/22 01:55:39;;;;;;;;;;;;;;;12.99;100.00;95509.13;5085195;28;19924;-74
2023/05/22 01:58:09;;;;;;;;;;;;;;;12.90;100.00;95512.41;5084942;28;19928;-74
2023/05/22 02:00:40;;;;;;;;;;;;;;;12.84;100.00;95510.31;5082569;28;19932;-74
2023/05/22 02:03:07;;;;;;;;;;;;;;;12.80;100.00;95512.31;5081841;28;19924;-73
2023/05/22 02:05:38;;;;;;;;;;;;;;;12.74;100.00;95506.75;5084063;28;19924;-73
2023/05/22 02:08:05;;;;;;;;;;;;;;;12.76;100.00;95505.69;5068881;28;19977;-73
2023/05/22 02:10:33;;;;;;;;;;;;;;;12.61;100.00;95509.44;5075555;28;19928;-73
2023/05/22 02:12:59;;;;;;;;;;;;;;;12.41;100.00;95508.31;5083524;28;20352;-75
2023/05/22 02:15:26;;;;;;;;;;;;;;;12.28;100.00;95512.78;5084249;28;19950;-74
2023/05/22 02:17:52;;;;;;;;;;;;;;;12.00;100.00;95513.94;5081036;28;19931;-74
2023/05/22 02:20:18;;;;;;;;;;;;;;;11.85;100.00;95521.06;5071005;28;19924;-74
2023/05/22 02:22:47;;;;;;;;;;;;;;;11.83;100.00;95522.94;5080698;28;20369;-75
2023/05/22 02:25:13;;;;;;;;;;;;;;;12.02;100.00;95514.69;5078204;28;19928;-73
2023/05/22 02:27:41;;;;;;;;;;;;;;;12.21;100.00;95515.00;5075795;28;20055;-74
2023/05/22 02:30:08;;;;;;;;;;;;;;;12.31;100.00;95508.19;5072831;28;19978;-73
2023/05/22 02:32:34;;;;;;;;;;;;;;;12.40;100.00;95513.63;5073069;28;20015;-74
2023/05/22 02:35:01;;;;;;;;;;;;;;;12.68;100.00;95514.97;5082547;28;19934;-74
2023/05/22 02:37:27;;;;;;;;;;;;;;;12.54;100.00;95508.25;5076534;28;20337;-74
2023/05/22 02:39:54;;;;;;;;;;;;;;;12.48;100.00;95512.13;5084643;28;19970;-74
2023/05/22 02:42:21;;;;;;;;;;;;;;;12.33;100.00;95502.88;5080587;28;19974;-73
2023/05/22 02:44:47;;;;;;;;;;;;;;;12.19;100.00;95509.06;5076783;28;19924;-73
2023/05/22 02:47:13;;;;;;;;;;;;;;;12.16;100.00;95505.88;5079217;28;19936;-73
2023/05/22 02:49:40;;;;;;;;;;;;;;;12.06;100.00;95503.94;5087517;28;19939;-74
2023/05/22 02:52:06;;;;;;;;;;;;;;;12.08;100.00;95501.22;5083714;28;20344;-73
2023/05/22 02:54:32;;;;;;;;;;;;;;;12.11;100.00;95517.41;5086137;28;19924;-74
2023/05/22 02:57:01;;;;;;;;;;;;;;;12.14;100.00;95518.16;5083520;28;20638;-73
2023/05/22 02:59:27;;;;;;;;;;;;;;;12.20;100.00;95520.28;5071945;28;19930;-74
2023/05/22 03:01:54;;;;;;;;;;;;;;;12.27;100.00;95513.69;5079298;28;19928;-73
2023/05/22 03:04:20;;;;;;;;;;;;;;;12.24;100.00;95512.16;5084184;28;19976;-73
2023/05/22 03:06:46;;;;;;;;;;;;;;;12.27;100.00;95509.34;5085334;28;19943;-73
2023/05/22 03:09:13;;;;;;;;;;;;;;;12.31;100.00;95510.78;5086113;28;19931;-73
2023/05/22 03:11:39;;;;;;;;;;;;;;;12.36;100.00;95505.25;5086495;28;19924;-73
2023/05/22 03:14:06;;;;;;;;;;;;;;;12.34;100.00;95510.53;5084054;28;20410;-73
2023/05/22 03:16:33;;;;;;;;;;;;;;;12.38;100.00;95507.72;5084712;28;19924;-73
2023/05/22 03:19:07;;;;;;;;;;;;;;;12.43;100.00;95508.22;5085311;28;20019;-73
2023/05/22 03:21:33;;;;;;;;;;;;;;;12.33;100.00;95505.47;5086014;28;19924;-74
2023/05/22 03:23:59;;;;;;;;;;;;;;;12.24;100.00;95508.75;5081397;28;19928;-74
2023/05/22 03:26:27;;;;;;;;;;;;;;;12.19;100.00;95513.44;5087986;28;19981;-74
2023/05/22 03:28:53;;;;;;;;;;;;;;;12.17;100.00;95508.38;5088705;28;19963;-74
2023/05/22 03:31:21;;;;;;;;;;;;;;;12.19;100.00;95511.66;5086852;28;19924;-74
2023/05/22 03:33:48;;;;;;;;;;;;;;;12.18;100.00;95514.38;5087749;28;19924;-74
2023/05/22 03:36:14;;;;;;;;;;;;;;;12.22;100.00;95510.63;5089518;28;19924;-74
2023/05/22 03:38:41;;;;;;;;;;;;;;;12.24;100.00;95514.75;5086770;28;19928;-74
2023/05/22 03:41:07;;;;;;;;;;;;;;;12.19;100.00;95516.03;5084895;28;20019;-74
2023/05/22 03:43:33;;;;;;;;;;;;;;;12.17;100.00;95512.72;5085127;28;20047;-74
2023/05/22 03:46:00;;;;;;;;;;;;;;;12.13;100.00;95517.31;5086933;28;19927;-74
2023/05/22 03:48:27;;;;;;;;;;;;;;;12.13;100.00;95512.13;5085377;28;19924;-74
2023/05/22 03:50:53;;;;;;;;;;;;;;;12.07;100.00;95513.38;5076237;28;19970;-74
2023/05/22 03:53:20;;;;;;;;;;;;;;;12.08;100.00;95512.44;5085353;28;20447;-74
2023/05/22 03:55:47;;;;;;;;;;;;;;;12.12;100.00;95518.22;5088196;28;20389;-74
2023/05/22 03:58:13;;;;;;;;;;;;;;;12.11;100.00;95514.81;5088576;28;19924;-74
2023/05/22 04:00:39;;;;;;;;;;;;;;;12.04;100.00;95517.97;5082005;28;19943;-74
2023/05/22 04:03:11;;;;;;;;;;;;;;;12.04;100.00;95528.34;5088725;28;20345;-74
2023/05/22 04:05:39;;;;;;;;;;;;;;;12.11;100.00;95529.56;5086183;28;20448;-73
2023/05/22 04:08:05;;;;;;;;;;;;;;;12.11;100.00;95526.97;5089139;28;20400;-74
2023/05/22 04:10:31;;;;;;;;;;;;;;;12.02;100.00;95530.25;5080743;28;19924;-73
2023/05/22 04:12:58;;;;;;;;;;;;;;;12.05;100.00;95533.47;5086027;28;19931;-73
2023/05/22 04:15:25;;;;;;;;;;;;;;;12.00;100.00;95534.72;5081190;28;19932;-73
2023/05/22 04:17:52;;;;;;;;;;;;;;;11.80;100.00;95525.75;5084789;28;19984;-73
2023/05/22 04:20:21;;;;;;;;;;;;;;;11.83;100.00;95528.97;5084810;28;20390;-73
2023/05/22 04:22:48;;;;;;;;;;;;;;;12.00;100.00;95530.34;5086868;28;20022;-73
2023/05/22 04:25:15;;;;;;;;;;;;;;;12.14;100.00;95534.53;5080517;28;20465;-73
2023/05/22 04:27:41;;;;;;;;;;;;;;;12.18;100.00;95538.56;5084417;28;19935;-72
2023/05/22 04:30:09;;;;;;;;;;;;;;;12.23;100.00;95540.81;5081378;28;19974;-73
2023/05/22 04:32:35;;;;;;;;;;;;;;;12.22;100.00;95541.78;5077624;28;20023;-73
2023/05/22 04:35:02;;;;;;;;;;;;;;;12.24;100.00;95539.91;5077251;28;19932;-73
2023/05/22 04:37:30;;;;;;;;;;;;;;;12.21;100.00;95534.94;5068873;28;19925;-73
2023/05/22 04:40:02;;;;;;;;;;;;;;;12.24;100.00;95535.53;5071937;28;20359;-73
2023/05/22 04:42:29;;;;;;;;;;;;;;;12.33;100.00;95534.84;5069323;28;19931;-73
2023/05/22 04:44:56;;;;;;;;;;;;;;;12.50;100.00;95531.03;5074647;28;19928;-72
2023/05/22 04:47:23;;;;;;;;;;;;;;;12.54;100.00;95529.03;5071482;28;20494;-72
2023/05/22 04:49:50;;;;;;;;;;;;;;;12.64;100.00;95535.16;5077029;28;19946;-72
2023/05/22 04:52:16;;;;;;;;;;;;;;;12.78;100.00;95534.97;5079731;28;20317;-72
2023/05/22 04:54:45;;;;;;;;;;;;;;;12.84;100.00;95533.69;5089888;28;19931;-72
2023/05/22 04:57:12;;;;;;;;;;;;;;;12.96;100.00;95535.34;5081468;28;19968;-72
2023/05/22 04:59:39;;;;;;;;;;;;;;;13.00;100.00;95533.34;5085729;28;19943;-72
2023/05/22 05:02:06;;;;;;;;;;;;;;;13.05;100.00;95533.81;5080593;28;20362;-72
2023/05/22 05:04:32;;;;;;;;;;;;;;;13.13;100.00;95536.69;5089715;28;20340;-72
2023/05/22 05:06:58;;;;;;;;;;;;;;;13.24;100.00;95528.91;5075335;28;20341;-72
2023/05/22 05:09:25;;;;;;;;;;;;;;;13.30;100.00;95528.41;5085850;28;19935;-71
2023/05/22 05:11:52;;;;;;;;;;;;;;;13.37;100.00;95533.16;5085772;28;19978;-72
2023/05/22 05:14:19;;;;;;;;;;;;;;;13.37;100.00;95535.75;5088121;28;19924;-72
2023/05/22 05:16:46;;;;;;;;;;;;;;;13.37;100.00;95535.75;5078873;28;19939;-74
2023/05/22 05:19:12;;;;;;;;;;;;;;;13.37;100.00;95540.97;5086668;28;20027;-74
2023/05/22 05:21:39;;;;;;;;;;;;;;;13.29;100.00;95537.19;5060354;28;19925;-75
2023/05/22 05:24:06;;;;;;;;;;;;;;;13.24;100.00;95531.50;5077669;28;19933;-75
2023/05/22 05:26:32;;;;;;;;;;;;;;;13.31;100.00;95542.25;5081318;28;20034;-75
2023/05/22 05:28:58;;;;;;;;;;;;;;;13.37;100.00;95540.97;5079422;28;19928;-75
2023/05/22 05:31:26;;;;;;;;;;;;;;;13.56;100.00;95542.00;5079847;28;19924;-74
2023/05/22 05:33:53;;;;;;;;;;;;;;;13.90;100.00;95538.50;5083980;28;19928;-75
2023/05/22 05:36:20;;;;;;;;;;;;;;;14.17;100.00;95541.53;5079036;28;20387;-76
2023/05/22 05:38:46;;;;;;;;;;;;;;;14.35;100.00;95543.56;5083176;28;19951;-75
2023/05/22 05:41:12;;;;;;;;;;;;;;;14.54;100.00;95540.34;5070241;28;19928;-75
2023/05/22 05:43:38;;;;;;;;;;;;;;;14.80;100.00;95538.19;5086964;28;19924;-75
2023/05/22 05:46:05;;;;;;;;;;;;;;;14.94;100.00;95541.31;5083612;28;19931;-75
2023/05/22 05:48:32;;;;;;;;;;;;;;;14.98;100.00;95542.69;5074264;28;19974;-75
2023/05/22 05:50:59;;;;;;;;;;;;;;;15.01;100.00;95541.59;5085109;28;19924;-75
2023/05/22 05:53:25;;;;;;;;;;;;;;;15.14;100.00;95539.63;5086722;28;20133;-76
2023/05/22 05:55:51;;;;;;;;;;;;;;;15.34;100.00;95542.31;5068902;28;20015;-76
2023/05/22 05:58:18;;;;;;;;;;;;;;;15.56;100.00;95547.34;5078775;28;20378;-75
2023/05/22 06:00:44;;;;;;;;;;;;;;;15.52;100.00;95545.13;5084216;28;20413;-76
2023/05/22 06:03:10;;;;;;;;;;;;;;;15.75;100.00;95543.97;5086465;28;19929;-73
2023/05/22 06:05:38;;;;;;;;;;;;;;;15.78;100.00;95545.50;5085268;28;19924;-75
2023/05/22 06:08:05;;;;;;;;;;;;;;;16.03;100.00;95541.59;5070132;28;20443;-75
2023/05/22 06:10:31;;;;;;;;;;;;;;;16.12;100.00;95548.59;5068551;28;19924;-75
2023/05/22 06:12:57;;;;;;;;;;;;;;;16.27;100.00;95549.84;5079837;28;19972;-75
2023/05/22 06:15:24;;;;;;;;;;;;;;;16.53;100.00;95560.59;5078018;28;19924;-75
2023/05/22 06:17:50;;;;;;;;;;;;;;;16.59;100.00;95554.81;5080687;28;19928;-74
2023/05/22 06:20:16;;;;;;;;;;;;;;;16.84;100.00;95552.63;5081013;28;19924;-74
2023/05/22 06:22:44;;;;;;;;;;;;;;;17.03;100.00;95552.59;5083422;28;19924;-74
2023/05/22 06:25:11;;;;;;;;;;;;;;;17.08;100.00;95550.38;5083405;28;19928;-70
2023/05/22 06:27:37;;;;;;;;;;;;;;;17.15;100.00;95564.53;5081532;28;19924;-72
2023/05/22 06:30:04;;;;;;;;;;;;;;;17.31;100.00;95557.88;5086890;28;19927;-72
2023/05/22 06:32:30;;;;;;;;;;;;;;;17.10;100.00;95553.69;5083017;28;19954;-72
2023/05/22 06:34:56;;;;;;;;;;;;;;;16.79;100.00;95553.03;5081381;28;19928;-73
2023/05/22 06:37:23;;;;;;;;;;;;;;;16.72;100.00;95559.75;5076756;28;19929;-73
2023/05/22 06:39:50;;;;;;;;;;;;;;;16.75;100.00;95558.69;5077991;28;20717;-73
2023/05/22 06:42:16;;;;;;;;;;;;;;;16.75;100.00;95559.50;5085897;28;19928;-74
2023/05/22 06:44:43;;;;;;;;;;;;;;;16.87;100.00;95557.56;5090851;28;19932;-74
2023/05/22 06:47:09;;;;;;;;;;;;;;;17.01;100.00;95561.53;5076782;28;20047;-74
2023/05/22 06:49:35;;;;;;;;;;;;;;;17.15;100.00;95556.69;5086017;28;19932;-74
2023/05/22 06:52:02;;;;;;;;;;;;;;;17.11;100.00;95563.16;5083924;28;19924;-74
2023/05/22 06:54:28;;;;;;;;;;;;;;;17.20;100.00;95569.34;5089697;28;19935;-75
2023/05/22 06:56:56;;;;;;;;;;;;;;;17.10;100.00;95560.72;5085867;28;19925;-76
2023/05/22 06:59:22;;;;;;;;;;;;;;;17.08;100.00;95570.47;5079292;28;19957;-74
2023/05/22 07:01:48;;;;;;;;;;;;;;;17.17;100.00;95567.84;5077227;28;19969;-74
2023/05/22 07:04:15;;;;;;;;;;;;;;;17.44;100.00;95571.47;5077766;28;19935;-73
2023/05/22 07:06:42;;;;;;;;;;;;;;;17.53;100.00;95580.25;5083984;28;20390;-73
2023/05/22 07:09:09;;;;;;;;;;;;;;;17.54;100.00;95579.28;5086475;28;20007;-75
2023/05/22 07:11:35;;;;;;;;;;;;;;;17.52;100.00;95586.47;5085211;28;19928;-73
2023/05/22 07:14:03;;;;;;;;;;;;;;;17.45;100.00;95586.22;5068448;28;19924;-73
2023/05/22 07:16:30;;;;;;;;;;;;;;;17.50;100.00;95585.78;5050143;28;19929;-74
2023/05/22 07:18:56;;;;;;;;;;;;;;;17.54;100.00;95587.13;5061810;28;19951;-73
2023/05/22 07:21:23;;;;;;;;;;;;;;;17.75;100.00;95584.31;5052759;28;19925;-75
2023/05/22 07:23:49;;;;;;;;;;;;;;;17.87;100.00;95589.25;5062081;28;20019;-75
2023/05/22 07:26:15;;;;;;;;;;;;;;;17.98;100.00;95593.47;5062887;28;19928;-75
2023/05/22 07:28:42;;;;;;;;;;;;;;;17.99;100.00;95587.25;5064001;28;20287;-75
2023/05/22 07:31:09;;;;;;;;;;;;;;;17.88;100.00;95590.09;5067597;28;19924;-75
2023/05/22 07:33:36;;;;;;;;;;;;;;;17.82;100.00;95593.28;5060562;28;19929;-75
2023/05/22 07:36:02;;;;;;;;;;;;;;;17.85;100.00;95590.38;5058901;28;19932;-75
2023/05/22 07:38:28;;;;;;;;;;;;;;;17.86;100.00;95594.63;5065606;28;20399;-74
2023/05/22 07:40:54;;;;;;;;;;;;;;;17.89;100.00;95595.16;5059419;28;20283;-75
2023/05/22 07:43:21;;;;;;;;;;;;;;;18.02;100.00;95586.97;5068661;28;20421;-75
2023/05/22 07:45:47;;;;;;;;;;;;;;;18.11;100.00;95599.19;5062678;28;19928;-75
2023/05/22 07:48:15;;;;;;;;;;;;;;;18.04;100.00;95592.88;5062683;28;19924;-74
2023/05/22 07:50:43;;;;;;;;;;;;;;;18.07;100.00;95599.63;5051757;28;19929;-76
2023/05/22 07:53:10;;;;;;;;;;;;;;;17.94;100.00;95599.13;5062683;28;19925;-74
2023/05/22 07:55:36;;;;;;;;;;;;;;;17.93;100.00;95592.25;5053700;28;19929;-74
2023/05/22 07:58:03;;;;;;;;;;;;;;;17.92;100.00;95601.09;5047494;28;19924;-75
2023/05/22 08:00:30;;;;;;;;;;;;;;;18.00;100.00;95599.38;5055449;28;19932;-75
2023/05/22 08:02:56;;;;;;;;;;;;;;;18.03;100.00;95603.53;5062336;28;19925;-74
2023/05/22 08:05:23;;;;;;;;;;;;;;;17.95;100.00;95609.50;5059379;28;20023;-74
2023/05/22 08:07:50;;;;;;;;;;;;;;;17.99;100.00;95607.41;5058068;28;19928;-75
2023/05/22 08:10:17;;;;;;;;;;;;;;;17.93;100.00;95606.19;5056955;28;20379;-76
2023/05/22 08:12:43;;;;;;;;;;;;;;;17.99;100.00;95610.84;5055833;28;19925;-75
2023/05/22 08:15:10;;;;;;;;;;;;;;;17.84;100.00;95609.69;5055216;28;19974;-76
2023/05/22 08:17:36;;;;;;;;;;;;;;;17.87;100.00;95604.13;5042981;28;19925;-76
2023/05/22 08:20:04;;;;;;;;;;;;;;;17.88;100.00;95611.88;5050322;28;19928;-76
2023/05/22 08:22:33;;;;;;;;;;;;;;;17.99;100.00;95605.59;5041735;28;19933;-76
2023/05/22 08:24:59;;;;;;;;;;;;;;;18.08;100.00;95604.72;5043663;28;19928;-76
2023/05/22 08:27:25;;;;;;;;;;;;;;;18.11;100.00;95604.44;5055353;28;20464;-75
2023/05/22 08:29:51;;;;;;;;;;;;;;;18.18;100.00;95602.06;5052654;28;19924;-75
2023/05/22 08:32:18;;;;;;;;;;;;;;;18.23;100.00;95605.03;5063458;28;19928;-76
2023/05/22 08:34:44;;;;;;;;;;;;;;;18.36;100.00;95610.78;5052980;28;19929;-75
2023/05/22 08:37:11;;;;;;;;;;;;;;;18.51;100.00;95603.22;5054255;28;19924;-76
2023/05/22 08:39:38;;;;;;;;;;;;;;;18.77;100.00;95605.13;5051529;28;19925;-76
2023/05/22 08:42:05;;;;;;;;;;;;;;;18.88;100.00;95599.66;5048897;28;19929;-77
2023/05/22 08:44:31;;;;;;;;;;;;;;;19.12;100.00;95604.25;5063717;28;19925;-76
2023/05/22 08:46:59;;;;;;;;;;;;;;;19.40;100.00;95604.94;5050415;28;20398;-75
2023/05/22 08:49:25;;;;;;;;;;;;;;;19.46;100.00;95600.88;5034083;28;19929;-75
2023/05/22 08:51:54;;;;;;;;;;;;;;;19.59;100.00;95602.09;5067325;28;20018;-76
2023/05/22 08:54:21;;;;;;;;;;;;;;;19.80;100.00;95606.16;5046183;28;19933;-75
2023/05/22 08:56:49;;;;;;;;;;;;;;;20.23;100.00;95604.38;5056513;28;20019;-76
2023/05/22 08:59:15;;;;;;;;;;;;;;;20.41;100.00;95602.44;5058161;28;19936;-76
2023/05/22 09:01:42;;;;;;;;;;;;;;;20.83;100.00;95596.28;5039865;28;19932;-76
2023/05/22 09:04:08;;;;;;;;;;;;;;;21.02;100.00;95597.78;5052435;28;20192;-75
2023/05/22 09:06:34;;;;;;;;;;;;;;;21.26;100.00;95596.94;5042170;28;19956;-75
2023/05/22 09:09:02;;;;;;;;;;;;;;;21.19;100.00;95595.97;5044671;28;19936;-76
2023/05/22 09:11:28;;;;;;;;;;;;;;;21.19;100.00;95603.88;5047631;28;20522;-76
2023/05/22 09:14:06;;;;;;;;;;;;;;;21.26;100.00;95607.47;5054665;28;19929;-75
2023/05/22 09:16:32;;;;;;;;;;;;;;;21.35;100.00;95601.22;5055005;28;19944;-77
2023/05/22 09:18:59;;;;;;;;;;;;;;;21.34;100.00;95599.59;5050427;28;19982;-75
2023/05/22 09:21:28;;;;;;;;;;;;;;;21.34;100.00;95598.78;5045821;28;20311;-77
2023/05/22 09:23:54;;;;;;;;;;;;;;;21.68;100.00;95603.81;5050947;28;19925;-77
2023/05/22 09:26:21;;;;;;;;;;;;;;;21.80;100.00;95599.81;5045049;28;19929;-76
2023/05/22 09:28:47;;;;;;;;;;;;;;;;;;5049539;28;19932;-77
2023/05/22 09:31:15;;;;;;;;;;;;;;;21.75;89.06;95597.69;5064441;28;19970;-75
2023/05/22 09:33:43;;;;;;;;;;;;;;;22.38;96.64;95585.41;5052859;28;19929;-76
2023/05/22 09:36:09;;;;;;;;;;;;;;;22.66;88.08;95592.84;5040656;28;19990;-71
2023/05/22 09:38:36;;;;;;;;;;;;;;;22.89;88.61;95585.75;5049336;28;20023;-76
2023/05/22 09:41:02;;;;;;;;;;;;;;;23.15;86.30;95587.22;5051829;28;19928;-75
2023/05/22 09:43:28;;;;;;;;;;;;;;;23.57;85.07;95591.09;5065245;28;19935;-76
2023/05/22 09:46:00;;;;;;;;;;;;;;;23.63;80.12;95583.28;5058509;28;20371;-76
2023/05/22 09:48:28;;;;;;;;;;;;;;;23.70;84.36;95572.84;5067687;28;19978;-76
2023/05/22 09:50:54;;;;;;;;;;;;;;;23.55;81.79;95583.38;5059201;28;19925;-76
2023/05/22 09:53:26;;;;;;;;;;;;;;;23.90;81.21;95575.72;5067479;28;19936;-76
2023/05/22 09:55:52;;;;;;;;;;;;;;;23.63;84.16;95571.88;5065322;28;19925;-74
2023/05/22 09:58:19;;;;;;;;;;;;;;;23.98;86.74;95569.53;5069234;28;19974;-75
2023/05/22 10:00:46;;;;;;;;;;;;;;;24.37;83.37;95575.31;5069466;28;19967;-75
2023/05/22 10:03:14;;;;;;;;;;;;;;;24.15;79.79;95578.91;5063991;28;19932;-75
2023/05/22 10:05:45;;;;;;;;;;;;;;;23.99;80.35;95577.28;5058656;28;20333;-74
2023/05/22 10:08:14;;;;;;;;;;;;;;;23.59;75.28;95566.13;5064420;28;19925;-75
2023/05/22 10:10:42;;;;;;;;;;;;;;;23.85;77.10;95575.47;5061645;28;19982;-75
2023/05/22 10:13:08;;;;;;;;;;;;;;;23.56;78.30;95571.78;5058699;28;19924;-76
2023/05/22 10:15:35;;;;;;;;;;;;;;;24.05;81.54;95570.44;5070907;28;19940;-74
2023/05/22 10:18:01;;;;;;;;;;;;;;;24.14;76.13;95556.09;5057328;28;19925;-74
2023/05/22 10:20:28;;;;;;;;;;;;;;;24.46;73.82;95556.69;5044775;28;19963;-73
2023/05/22 10:22:56;;;;;;;;;;;;;;;24.51;75.20;95559.56;5058111;28;19932;-74
2023/05/22 10:25:23;;;;;;;;;;;;;;;24.82;73.10;95559.28;5057839;28;19925;-73
2023/05/22 10:27:51;;;;;;;;;;;;;;;24.92;70.68;95556.31;5069145;28;19932;-74
2023/05/22 10:30:20;;;;;;;;;;;;;;;24.60;70.11;95548.69;5068473;28;19924;-74
2023/05/22 10:32:50;;;;;;;;;;;;;;;24.32;69.65;95550.38;5060004;28;19974;-74
2023/05/22 10:35:19;;;;;;;;;;;;;;;24.73;68.21;95552.47;5049945;28;19928;-73
2023/05/22 10:37:48;;;;;;;;;;;;;;;24.61;70.55;95546.84;5063314;28;19929;-73
2023/05/22 10:40:19;;;;;;;;;;;;;;;24.26;68.13;95543.22;5069930;28;19928;-73
2023/05/22 10:42:45;;;;;;;;;;;;;;;24.02;64.69;95545.16;5065598;28;19979;-73
2023/05/22 10:45:11;;;;;;;;;;;;;;;23.94;66.49;95541.81;5063993;28;19925;-73
2023/05/22 10:47:38;;;;;;;;;;;;;;;24.09;68.00;95542.59;5073084;28;19928;-73
2023/05/22 10:50:06;;;;;;;;;;;;;;;24.42;67.60;95536.88;5064494;28;19929;-73
2023/05/22 10:52:33;;;;;;;;;;;;;;;25.04;67.44;95539.72;5074090;28;20007;-73
2023/05/22 10:55:00;;;;;;;;;;;;;;;25.15;62.23;95541.06;5062586;28;19933;-74
2023/05/22 10:57:32;;;;;;;;;;;;;;;25.65;69.58;95535.66;5071962;28;19930;-74
2023/05/22 11:00:06;;;;;;;;;;;;;;;25.78;69.64;95536.59;5059265;28;20012;-74
2023/05/22 11:02:36;;;;;;;;;;;;;;;25.48;58.08;95524.56;5062940;28;20008;-74
2023/05/22 11:05:33;;;;;;;;;;;;;;;25.39;66.38;95536.31;5063860;28;19925;-74
2023/05/22 11:08:08;;;;;;;;;;;;;;;25.00;58.42;95533.16;5044905;28;20413;-74
2023/05/22 11:10:50;;;;;;;;;;;;;;;25.15;65.50;95521.69;5048694;28;19998;-74
2023/05/22 11:13:18;;;;;;;;;;;;;;;25.27;65.26;95522.78;5064886;28;19925;-74
2023/05/22 11:15:45;;;;;;;;;;;;;;;25.74;65.04;95523.88;5070988;28;19990;-74
2023/05/22 11:18:13;;;;;;;;;;;;;;;25.60;62.34;95520.34;5063715;28;19924;-75
2023/05/22 11:20:39;;;;;;;;;;;;;;;25.78;66.31;95525.13;5068193;28;19928;-75
2023/05/22 11:23:06;;;;;;;;;;;;;;;25.65;56.17;95528.50;5048780;28;19979;-76
2023/05/22 11:25:33;;;;;;;;;;;;;;;25.46;56.13;95515.97;5055703;28;19936;-74
2023/05/22 11:28:01;;;;;;;;;;;;;;;25.73;59.59;95515.09;5047893;28;19929;-76
2023/05/22 11:30:30;;;;;;;;;;;;;;;25.90;60.83;95514.81;5047847;28;19929;-76
2023/05/22 11:32:57;;;;;;;;;;;;;;;25.64;62.65;95513.63;5060223;28;19931;-76
2023/05/22 11:35:24;;;;;;;;;;;;;;;25.65;62.94;95519.75;5046536;28;19933;-76
2023/05/22 11:37:51;;;;;;;;;;;;;;;25.05;63.45;95517.50;5058770;28;19936;-77
2023/05/22 11:40:19;;;;;;;;;;;;;;;24.83;63.77;95508.75;5054793;28;19932;-76
2023/05/22 11:42:46;;;;;;;;;;;;;;;24.61;64.96;95504.50;5064694;28;19924;-75
2023/05/22 11:45:12;;;;;;;;;;;;;;;24.87;67.01;95512.66;5061767;28;20024;-75
2023/05/22 11:47:40;;;;;;;;;;;;;;;25.08;65.24;95513.66;5070799;28;19990;-75
2023/05/22 11:50:08;;;;;;;;;;;;;;;25.15;76.61;95503.94;5066891;28;19928;-75
2023/05/22 11:52:35;;;;;;;;;;;;;;;25.01;66.16;95512.78;5068370;28;19986;-76
2023/05/22 11:55:04;;;;;;;;;;;;;;;24.91;59.92;95513.09;5054008;28;19925;-76
2023/05/22 11:57:30;;;;;;;;;;;;;;;24.39;63.01;95524.84;5059333;28;19972;-76
2023/05/22 11:59:57;;;;;;;;;;;;;;;24.00;65.15;95520.72;5047509;28;19931;-76
2023/05/22 12:02:23;;;;;;;;;;;;;;;23.65;67.12;95522.28;5054223;28;20413;-76
2023/05/22 12:04:55;;;;;;;;;;;;;;;23.32;67.71;95527.91;5069402;28;19928;-76
2023/05/22 12:07:21;;;;;;;;;;;;;;;23.08;70.28;95536.09;5067015;28;20018;-75
2023/05/22 12:09:48;;;;;;;;;;;;;;;22.89;71.75;95542.69;5061450;28;19946;-77
2023/05/22 12:12:15;;;;;;;;;;;;;;;22.40;76.15;95537.75;5051644;28;19924;-79
2023/05/22 12:14:44;;;;;;;;;;;;;;;21.84;80.05;95540.50;5046775;28;19931;-78
2023/05/22 12:17:11;;;;;;;;;;;;;;;21.70;76.67;95546.50;5067711;28;19955;-78
2023/05/22 12:19:39;;;;;;;;;;;;;;;21.49;78.68;95549.69;5056922;28;19975;-76
2023/05/22 12:22:08;;;;;;;;;;;;;;;20.99;100.00;95553.38;5063702;28;19932;-76
2023/05/22 12:24:37;;;;;;;;;;;;;;;20.65;100.00;95558.78;5047099;28;19929;-76
2023/05/22 12:27:07;;;;;;;;;;;;;;;20.43;100.00;95553.16;5048542;28;19929;-77
2023/05/22 12:29:34;;;;;;;;;;;;;;;19.98;100.00;95554.34;5045562;28;20796;-77
2023/05/22 12:32:01;;;;;;;;;;;;;;;19.45;100.00;95557.19;5054370;28;20058;-76
2023/05/22 12:34:32;;;;;;;;;;;;;;;19.20;100.00;95551.78;5047460;28;20307;-76
2023/05/22 12:36:58;;;;;;;;;;;;;;;18.77;100.00;95557.91;5044998;28;19925;-76
2023/05/22 12:39:27;;;;;;;;;;;;;;;18.81;100.00;95552.19;5043236;28;19925;-75
2023/05/22 12:41:53;;;;;;;;;;;;;;;18.95;100.00;95556.09;5043543;28;19924;-79